createdAt,value
2023-04-16T00:02:06.329Z,99095.45
2023-04-16T00:04:59.292Z,99094.73
2023-04-16T00:07:51.666Z,99097.21
2023-04-16T00:10:42.187Z,99100.73
2023-04-16T00:13:32.593Z,99097.40
2023-04-16T00:16:23.095Z,99098.11
2023-04-16T00:19:13.572Z,99101.10
2023-04-16T00:22:04.200Z,99101.59
2023-04-16T00:24:54.651Z,99099.11
2023-04-16T00:27:45.536Z,99103.45
2023-04-16T00:30:36.247Z,99097.76
2023-04-16T00:33:26.817Z,99099.08
2023-04-16T00:36:17.289Z,99099.71
2023-04-16T00:39:08.581Z,99097.55
2023-04-16T00:41:59.783Z,99099.56
2023-04-16T00:44:50.545Z,99101.66
2023-04-16T00:47:41.057Z,99101.36
2023-04-16T00:50:31.910Z,99103.53
2023-04-16T00:53:22.627Z,99105.07
2023-04-16T00:56:13.242Z,99110.16
2023-04-16T00:59:04.044Z,99109.38
2023-04-16T01:01:54.978Z,99108.76
2023-04-16T01:04:45.683Z,99113.02
2023-04-16T01:07:36.947Z,99113.17
2023-04-16T01:10:27.672Z,99114.33
2023-04-16T01:13:18.396Z,99117.86
2023-04-16T01:16:09.292Z,99119.58
2023-04-16T01:19:00.137Z,99118.17
2023-04-16T01:21:50.632Z,99117.27
2023-04-16T01:24:41.599Z,99118.99
2023-04-16T01:27:33.944Z,99114.38
2023-04-16T01:30:24.421Z,99119.79
2023-04-16T01:33:25.019Z,99122.45
2023-04-16T01:36:16.300Z,99122.88
2023-04-16T01:39:07.286Z,99122.15
2023-04-16T01:41:59.025Z,99120.77
2023-04-16T01:44:51.028Z,99124.20
2023-04-16T01:47:41.780Z,99126.29
2023-04-16T01:50:33.005Z,99125.30
2023-04-16T01:53:23.670Z,99130.64
2023-04-16T01:56:14.113Z,99130.84
2023-04-16T01:59:05.095Z,99130.87
2023-04-16T02:02:00.091Z,99133.98
2023-04-16T02:04:51.069Z,99138.00
2023-04-16T02:07:41.746Z,99140.52
2023-04-16T02:10:31.917Z,99141.00
2023-04-16T02:13:23.438Z,99142.48
2023-04-16T02:16:13.900Z,99145.41
2023-04-16T02:19:10.494Z,99149.65
2023-04-16T02:22:02.555Z,99150.30
2023-04-16T02:24:53.426Z,99145.79
2023-04-16T02:27:43.691Z,99145.98
2023-04-16T02:30:46.783Z,99148.89
2023-04-16T02:33:38.763Z,99149.44
2023-04-16T02:36:28.994Z,99157.48
2023-04-16T02:39:18.252Z,99157.64
2023-04-16T02:42:07.552Z,99156.49
2023-04-16T02:44:57.327Z,99165.43
2023-04-16T02:47:46.362Z,99167.05
2023-04-16T02:50:35.311Z,99168.29
2023-04-16T02:53:24.264Z,99169.12
2023-04-16T02:56:13.328Z,99170.88
2023-04-16T02:59:02.385Z,99170.52
2023-04-16T03:01:52.299Z,99170.92
2023-04-16T03:04:41.268Z,99177.30
2023-04-16T03:07:30.566Z,99178.86
2023-04-16T03:10:19.801Z,99183.68
2023-04-16T03:13:08.786Z,99184.73
2023-04-16T03:15:58.122Z,99189.80
2023-04-16T03:18:47.563Z,99194.91
2023-04-16T03:21:36.221Z,99199.64
2023-04-16T03:24:26.216Z,99198.58
2023-04-16T03:27:15.551Z,99201.92
2023-04-16T03:30:04.873Z,99204.98
2023-04-16T03:32:55.156Z,99209.25
2023-04-16T03:35:44.573Z,99205.51
2023-04-16T03:38:33.511Z,99209.63
2023-04-16T03:41:22.202Z,99214.64
2023-04-16T03:44:11.321Z,99209.08
2023-04-16T03:47:00.665Z,99210.33
2023-04-16T03:49:50.126Z,99217.15
2023-04-16T03:52:42.235Z,99219.45
2023-04-16T03:55:31.110Z,99223.48
2023-04-16T03:58:20.117Z,99225.51
2023-04-16T04:01:09.533Z,99227.59
2023-04-16T04:03:59.027Z,99228.20
2023-04-16T04:06:48.053Z,99227.53
2023-04-16T04:09:37.816Z,99230.92
2023-04-16T04:12:27.279Z,99234.08
2023-04-16T04:15:16.742Z,99232.02
2023-04-16T04:18:05.745Z,99243.85
2023-04-16T04:20:54.935Z,99241.55
2023-04-16T04:23:46.530Z,99245.67
2023-04-16T04:26:35.727Z,99251.11
2023-04-16T04:29:25.350Z,99252.75
2023-04-16T04:32:14.638Z,99255.65
2023-04-16T04:35:03.597Z,99259.02
2023-04-16T04:37:52.709Z,99260.32
2023-04-16T04:40:42.208Z,99260.05
2023-04-16T04:43:31.509Z,99262.73
2023-04-16T04:46:20.489Z,99259.63
2023-04-16T04:49:10.568Z,99258.59
2023-04-16T04:52:01.402Z,99262.20
2023-04-16T04:54:50.386Z,99266.48
2023-04-16T04:57:40.272Z,99269.20
2023-04-16T05:00:29.158Z,99271.14
2023-04-16T05:03:20.299Z,99275.26
2023-04-16T05:06:09.605Z,99283.11
2023-04-16T05:08:58.890Z,99289.48
2023-04-16T05:11:48.160Z,99291.79
2023-04-16T05:14:37.518Z,99297.68
2023-04-16T05:17:26.949Z,99301.23
2023-04-16T05:20:16.102Z,99302.20
2023-04-16T05:23:05.376Z,99301.46
2023-04-16T05:25:54.605Z,99301.33
2023-04-16T05:28:43.942Z,99309.48
2023-04-16T05:31:32.621Z,99311.77
2023-04-16T05:34:21.820Z,99320.05
2023-04-16T05:37:11.144Z,99322.89
2023-04-16T05:40:00.364Z,99320.54
2023-04-16T05:42:49.560Z,99318.91
2023-04-16T05:45:41.285Z,99322.44
2023-04-16T05:48:31.337Z,99325.64
2023-04-16T05:51:23.718Z,99325.24
2023-04-16T05:54:12.825Z,99329.29
2023-04-16T05:57:02.213Z,99335.07
2023-04-16T05:59:51.725Z,99339.02
2023-04-16T06:02:41.442Z,99340.95
2023-04-16T06:05:33.547Z,99341.44
2023-04-16T06:08:22.947Z,99347.61
2023-04-16T06:11:11.990Z,99342.59
2023-04-16T06:14:03.388Z,99343.09
2023-04-16T06:16:52.674Z,99344.95
2023-04-16T06:19:41.891Z,99346.56
2023-04-16T06:22:31.052Z,99349.52
2023-04-16T06:25:20.280Z,99352.69
2023-04-16T06:28:09.234Z,99352.77
2023-04-16T06:30:58.486Z,99354.98
2023-04-16T06:33:47.671Z,99352.68
2023-04-16T06:36:37.767Z,99350.00
2023-04-16T06:39:26.754Z,99350.29
2023-04-16T06:42:15.897Z,99352.33
2023-04-16T06:45:05.278Z,99357.07
2023-04-16T06:47:54.436Z,99358.98
2023-04-16T06:50:43.901Z,99359.53
2023-04-16T06:53:33.986Z,99364.80
2023-04-16T06:56:23.050Z,99371.39
2023-04-16T06:59:11.863Z,99376.59
2023-04-16T07:02:01.374Z,99378.21
2023-04-16T07:04:53.401Z,99378.40
2023-04-16T07:07:42.621Z,99376.69
2023-04-16T07:10:31.470Z,99377.46
2023-04-16T07:13:20.546Z,99386.05
2023-04-16T07:16:09.772Z,99386.72
2023-04-16T07:18:58.678Z,99386.08
2023-04-16T07:21:47.925Z,99389.66
2023-04-16T07:24:37.184Z,99389.91
2023-04-16T07:27:26.528Z,99397.66
2023-04-16T07:30:15.882Z,99397.61
2023-04-16T07:33:05.261Z,99401.98
2023-04-16T07:35:54.536Z,99405.11
2023-04-16T07:38:47.321Z,99410.49
2023-04-16T07:41:36.716Z,99416.52
2023-04-16T07:44:25.969Z,99419.34
2023-04-16T07:47:15.510Z,99421.02
2023-04-16T07:50:04.806Z,99426.75
2023-04-16T07:52:53.753Z,99431.35
2023-04-16T07:55:43.494Z,99441.54
2023-04-16T07:58:32.674Z,99441.09
2023-04-16T08:01:22.309Z,99443.82
2023-04-16T08:04:11.454Z,99443.88
2023-04-16T08:07:00.307Z,99449.13
2023-04-16T08:09:50.429Z,99450.83
2023-04-16T08:12:39.654Z,99452.59
2023-04-16T08:15:31.288Z,99455.08
2023-04-16T08:18:58.053Z,99460.48
2023-04-16T08:22:11.731Z,99465.66
2023-04-16T08:25:01.049Z,99467.27
2023-04-16T08:27:50.552Z,99466.84
2023-04-16T08:30:39.588Z,99468.98
2023-04-16T08:33:28.958Z,99468.66
2023-04-16T08:36:17.965Z,99467.06
2023-04-16T08:39:07.390Z,99473.38
2023-04-16T08:41:56.561Z,99473.02
2023-04-16T08:44:49.099Z,99474.68
2023-04-16T08:47:38.294Z,99474.20
2023-04-16T08:50:28.428Z,99473.09
2023-04-16T08:53:18.316Z,99478.74
2023-04-16T08:56:07.680Z,99486.05
2023-04-16T08:58:59.459Z,99490.55
2023-04-16T09:01:49.213Z,99491.34
2023-04-16T09:04:38.520Z,99493.52
2023-04-16T09:07:27.556Z,99499.73
2023-04-16T09:10:16.937Z,99501.94
2023-04-16T09:13:06.115Z,99505.98
2023-04-16T09:15:57.275Z,99501.61
2023-04-16T09:18:47.950Z,99509.55
2023-04-16T09:21:41.017Z,99510.77
2023-04-16T09:24:31.770Z,99515.10
2023-04-16T09:27:21.199Z,99512.29
2023-04-16T09:30:23.244Z,99515.67
2023-04-16T09:33:16.769Z,99511.58
2023-04-16T09:36:06.393Z,99514.50
2023-04-16T09:38:57.576Z,99515.95
2023-04-16T09:41:48.055Z,99514.90
2023-04-16T09:44:38.040Z,99523.89
2023-04-16T09:47:39.501Z,99523.00
2023-04-16T09:50:29.555Z,99521.70
2023-04-16T09:53:21.955Z,99520.18
2023-04-16T09:56:13.012Z,99519.39
2023-04-16T09:59:02.159Z,99520.83
2023-04-16T10:02:12.294Z,99519.39
2023-04-16T10:05:09.078Z,99523.63
2023-04-16T10:07:58.575Z,99523.04
2023-04-16T10:10:49.891Z,99529.36
2023-04-16T10:13:39.035Z,99529.52
2023-04-16T10:16:27.999Z,99531.06
2023-04-16T10:19:17.117Z,99530.30
2023-04-16T10:22:06.642Z,99528.61
2023-04-16T10:24:55.526Z,99528.39
2023-04-16T10:27:44.669Z,99531.11
2023-04-16T10:30:33.965Z,99529.88
2023-04-16T10:33:23.727Z,99531.70
2023-04-16T10:36:13.694Z,99526.69
2023-04-16T10:39:02.695Z,99525.59
2023-04-16T10:41:52.038Z,99523.72
2023-04-16T10:44:45.018Z,99524.88
2023-04-16T10:47:34.795Z,99518.80
2023-04-16T10:50:23.739Z,99517.72
2023-04-16T10:53:24.109Z,99520.02
2023-04-16T10:56:13.947Z,99520.56
2023-04-16T10:59:03.949Z,99522.10
2023-04-16T11:01:54.891Z,99525.40
2023-04-16T11:04:45.335Z,99527.13
2023-04-16T11:07:35.964Z,99532.10
2023-04-16T11:10:24.928Z,99530.56
2023-04-16T11:13:14.731Z,99536.04
2023-04-16T11:16:04.179Z,99537.34
2023-04-16T11:18:54.551Z,99539.44
2023-04-16T11:21:46.298Z,99537.70
2023-04-16T11:24:36.258Z,99541.38
2023-04-16T11:27:25.570Z,99540.89
2023-04-16T11:30:14.548Z,99540.32
2023-04-16T11:33:04.654Z,99536.96
2023-04-16T11:35:59.162Z,99537.83
2023-04-16T11:38:48.438Z,99544.06
2023-04-16T11:41:37.608Z,99543.87
2023-04-16T11:44:27.550Z,99544.02
2023-04-16T11:47:16.668Z,99539.56
2023-04-16T11:50:18.206Z,99537.46
2023-04-16T11:53:07.399Z,99535.92
2023-04-16T11:55:57.380Z,99537.69
2023-04-16T11:58:47.125Z,99535.91
2023-04-16T12:01:36.885Z,99536.52
2023-04-16T12:04:26.313Z,99534.70
2023-04-16T12:07:16.437Z,99534.52
2023-04-16T12:10:09.095Z,99531.77
2023-04-16T12:12:58.326Z,99533.60
2023-04-16T12:15:48.174Z,99532.36
2023-04-16T12:18:37.391Z,99533.05
2023-04-16T12:21:26.644Z,99535.20
2023-04-16T12:24:16.357Z,99533.30
2023-04-16T12:27:06.871Z,99535.41
2023-04-16T12:30:05.458Z,99531.76
2023-04-16T12:32:56.119Z,99530.86
2023-04-16T12:35:46.958Z,99529.06
2023-04-16T12:38:35.907Z,99525.84
2023-04-16T12:41:24.972Z,99518.87
2023-04-16T12:44:17.960Z,99515.34
2023-04-16T12:47:07.058Z,99519.39
2023-04-16T12:49:56.279Z,99519.92
2023-04-16T12:52:45.655Z,99522.30
2023-04-16T12:55:34.550Z,99520.91
2023-04-16T12:58:23.786Z,99515.27
2023-04-16T13:02:01.256Z,99521.13
2023-04-16T13:04:50.322Z,99514.44
2023-04-16T13:07:39.496Z,99517.42
2023-04-16T13:10:30.293Z,99517.90
2023-04-16T13:13:19.489Z,99517.98
2023-04-16T13:16:08.898Z,99518.98
2023-04-16T13:18:58.000Z,99518.63
2023-04-16T13:21:47.334Z,99522.85
2023-04-16T13:24:36.648Z,99518.25
2023-04-16T13:27:25.606Z,99522.02
2023-04-16T13:30:16.226Z,99522.09
2023-04-16T13:33:05.463Z,99526.35
2023-04-16T13:35:54.606Z,99530.64
2023-04-16T13:38:44.585Z,99524.50
2023-04-16T13:41:33.511Z,99522.71
2023-04-16T13:44:22.238Z,99522.73
2023-04-16T13:47:12.132Z,99524.39
2023-04-16T13:50:00.985Z,99522.44
2023-04-16T13:52:50.382Z,99528.41
2023-04-16T13:55:39.141Z,99527.93
2023-04-16T13:58:28.348Z,99533.52
2023-04-16T14:01:17.415Z,99530.88
2023-04-16T14:04:08.088Z,99530.20
2023-04-16T14:06:57.483Z,99533.42
2023-04-16T14:09:46.890Z,99532.33
2023-04-16T14:12:37.608Z,99532.02
2023-04-16T14:15:29.856Z,99531.09
2023-04-16T14:18:18.901Z,99530.73
2023-04-16T14:21:08.129Z,99530.48
2023-04-16T14:23:57.353Z,99534.06
2023-04-16T14:26:46.495Z,99537.26
2023-04-16T14:29:36.453Z,99537.75
2023-04-16T14:32:28.869Z,99537.39
2023-04-16T14:35:18.193Z,99539.54
2023-04-16T14:38:07.653Z,99538.92
2023-04-16T14:40:57.454Z,99543.66
2023-04-16T14:43:46.786Z,99547.98
2023-04-16T14:46:36.237Z,99547.39
2023-04-16T14:49:31.951Z,99548.38
2023-04-16T14:52:21.044Z,99548.34
2023-04-16T14:55:09.997Z,99548.02
2023-04-16T14:57:59.945Z,99549.98
2023-04-16T15:00:49.345Z,99549.24
2023-04-16T15:03:39.037Z,99552.88
2023-04-16T15:06:29.649Z,99560.21
2023-04-16T15:09:29.221Z,99562.56
2023-04-16T15:12:19.233Z,99566.17
2023-04-16T15:15:10.094Z,99570.89
2023-04-16T15:18:00.404Z,99569.35
2023-04-16T15:20:49.596Z,99568.60
2023-04-16T15:23:39.095Z,99570.44
2023-04-16T15:26:27.976Z,99573.44
2023-04-16T15:29:17.151Z,99571.49
2023-04-16T15:32:09.032Z,99574.10
2023-04-16T15:34:58.542Z,99573.38
2023-04-16T15:37:48.279Z,99578.98
2023-04-16T15:40:40.324Z,99583.19
2023-04-16T15:43:30.225Z,99587.40
2023-04-16T15:46:19.421Z,99588.73
2023-04-16T15:49:08.774Z,99592.55
2023-04-16T15:51:58.041Z,99593.66
2023-04-16T15:54:48.092Z,99596.20
2023-04-16T15:57:37.206Z,99590.25
2023-04-16T16:00:27.584Z,99592.49
2023-04-16T16:03:19.575Z,99591.36
2023-04-16T16:06:09.686Z,99594.13
2023-04-16T16:08:58.900Z,99590.89
2023-04-16T16:11:48.127Z,99592.73
2023-04-16T16:14:37.238Z,99594.60
2023-04-16T16:17:27.081Z,99599.77
2023-04-16T16:20:16.471Z,99598.95
2023-04-16T16:23:05.995Z,99601.40
2023-04-16T16:25:55.469Z,99601.63
2023-04-16T16:28:44.848Z,99597.68
2023-04-16T16:31:33.988Z,99600.23
2023-04-16T16:34:23.065Z,99603.41
2023-04-16T16:37:12.876Z,99608.98
2023-04-16T16:40:02.850Z,99614.22
2023-04-16T16:42:52.032Z,99615.89
2023-04-16T16:45:41.896Z,99616.27
2023-04-16T16:48:31.244Z,99622.04
2023-04-16T16:51:20.696Z,99618.64
2023-04-16T16:54:11.987Z,99619.86
2023-04-16T16:57:02.454Z,99621.14
2023-04-16T16:59:52.461Z,99626.05
2023-04-16T17:02:42.025Z,99623.44
2023-04-16T17:05:31.022Z,99628.08
2023-04-16T17:08:22.686Z,99629.20
2023-04-16T17:11:13.839Z,99633.23
2023-04-16T17:14:03.027Z,99633.46
2023-04-16T17:16:52.113Z,99640.09
2023-04-16T17:19:41.617Z,99642.52
2023-04-16T17:22:31.175Z,99645.69
2023-04-16T17:25:20.658Z,99648.02
2023-04-16T17:28:09.997Z,99654.09
2023-04-16T17:30:59.541Z,99656.05
2023-04-16T17:33:49.175Z,99659.54
2023-04-16T17:36:37.984Z,99661.84
2023-04-16T17:39:31.516Z,99661.63
2023-04-16T17:42:21.182Z,99664.70
2023-04-16T17:49:09.475Z,99673.11
2023-04-16T17:51:58.507Z,99677.79
2023-04-16T17:54:49.779Z,99677.02
2023-04-16T17:57:46.738Z,99680.41
2023-04-16T18:02:26.961Z,99677.42
2023-04-16T18:04:48.831Z,99681.92
2023-04-16T18:07:40.984Z,99684.80
2023-04-16T18:10:32.835Z,99688.48
2023-04-16T18:14:10.698Z,99685.38
2023-04-16T18:17:42.212Z,99690.81
2023-04-16T18:20:31.673Z,99695.20
2023-04-16T18:23:30.360Z,99701.98
2023-04-16T18:26:22.906Z,99696.30
2023-04-16T18:29:18.087Z,99703.13
2023-04-16T18:32:17.072Z,99702.80
2023-04-16T18:35:06.971Z,99710.68
2023-04-16T18:38:00.862Z,99710.14
2023-04-16T18:40:51.812Z,99710.75
2023-04-16T18:43:41.807Z,99713.74
2023-04-16T18:46:32.972Z,99714.42
2023-04-16T18:49:22.427Z,99710.14
2023-04-16T18:52:17.434Z,99711.57
2023-04-16T18:55:07.366Z,99710.19
2023-04-16T18:57:59.588Z,99713.44
2023-04-16T19:00:48.956Z,99709.48
2023-04-16T19:03:38.359Z,99709.31
2023-04-16T19:06:29.217Z,99710.06
2023-04-16T19:09:20.156Z,99711.07
2023-04-16T19:12:09.317Z,99715.82
2023-04-16T19:14:58.434Z,99720.80
2023-04-16T19:17:47.725Z,99725.17
2023-04-16T19:20:37.014Z,99726.72
2023-04-16T19:23:26.583Z,99726.30
2023-04-16T19:26:15.282Z,99726.17
2023-04-16T19:29:04.158Z,99730.31
2023-04-16T19:36:54.538Z,99727.63
2023-04-16T19:39:43.705Z,99729.97
2023-04-16T19:42:32.751Z,99725.92
2023-04-16T19:45:25.851Z,99731.08
2023-04-16T19:48:40.136Z,99727.41
2023-04-16T19:51:29.153Z,99732.36
2023-04-16T19:54:18.669Z,99729.59
2023-04-16T19:57:07.697Z,99729.59
2023-04-16T20:00:07.845Z,99727.48
2023-04-16T20:02:57.253Z,99729.77
2023-04-16T20:06:40.391Z,99728.05
2023-04-16T20:09:29.598Z,99732.86
2023-04-16T20:12:21.428Z,99737.33
2023-04-16T20:15:11.582Z,99736.77
2023-04-16T20:18:00.606Z,99739.59
2023-04-16T20:20:52.105Z,99740.52
2023-04-16T20:23:41.770Z,99741.83
2023-04-16T20:26:33.723Z,99746.08
2023-04-16T20:29:23.026Z,99748.59
2023-04-16T20:32:14.705Z,99746.77
2023-04-16T20:35:05.320Z,99750.73
2023-04-16T20:37:54.280Z,99750.77
2023-04-16T20:40:44.776Z,99749.00
2023-04-16T20:43:38.263Z,99750.73
2023-04-16T20:46:30.345Z,99750.08
2023-04-16T20:49:23.084Z,99750.42
2023-04-16T20:52:12.392Z,99749.55
2023-04-16T20:55:01.571Z,99749.23
2023-04-16T20:57:50.960Z,99751.41
2023-04-16T21:00:40.426Z,99754.04
2023-04-16T21:03:29.608Z,99755.36
2023-04-16T21:06:22.511Z,99753.66
2023-04-16T21:09:12.006Z,99753.85
2023-04-16T21:12:01.696Z,99757.86
2023-04-16T21:14:50.982Z,99757.04
2023-04-16T21:17:40.385Z,99757.59
2023-04-16T21:20:30.550Z,99757.15
2023-04-16T21:23:19.729Z,99762.40
2023-04-16T21:26:09.596Z,99761.20
2023-04-16T21:28:58.476Z,99764.34
2023-04-16T21:31:47.967Z,99766.73
2023-04-16T21:34:36.867Z,99766.49
2023-04-16T21:37:25.858Z,99762.10
2023-04-16T21:40:15.404Z,99761.95
2023-04-16T21:43:04.713Z,99758.49
2023-04-16T21:45:54.511Z,99759.87
2023-04-16T21:48:43.531Z,99759.59
2023-04-16T21:51:32.574Z,99763.18
2023-04-16T21:54:23.004Z,99763.29
2023-04-16T21:57:12.421Z,99768.94
2023-04-16T22:00:01.473Z,99765.15
2023-04-16T22:02:56.550Z,99760.74
2023-04-16T22:05:45.957Z,99761.27
2023-04-16T22:08:35.203Z,99765.40
2023-04-16T22:11:24.390Z,99768.70
2023-04-16T22:14:14.692Z,99768.56
2023-04-16T22:17:03.588Z,99768.33
2023-04-16T22:19:53.558Z,99763.48
2023-04-16T22:22:42.506Z,99762.70
2023-04-16T22:25:31.913Z,99763.58
2023-04-16T22:28:21.371Z,99764.84
2023-04-16T22:31:10.462Z,99758.84
2023-04-16T22:34:02.159Z,99764.34
2023-04-16T22:36:52.565Z,99763.18
2023-04-16T22:39:42.262Z,99760.32
2023-04-16T22:42:31.195Z,99758.45
2023-04-16T22:45:20.336Z,99760.25
2023-04-16T22:48:09.717Z,99758.37
2023-04-16T22:50:58.865Z,99760.71
2023-04-16T22:53:48.047Z,99759.34
2023-04-16T22:56:37.175Z,99760.77
2023-04-16T22:59:26.527Z,99761.73
2023-04-16T23:02:15.813Z,99757.70
2023-04-16T23:05:05.377Z,99762.66
2023-04-16T23:07:54.362Z,99764.14
2023-04-16T23:10:43.504Z,99762.19
2023-04-16T23:13:32.762Z,99760.02
2023-04-16T23:16:21.889Z,99760.98
2023-04-16T23:19:14.889Z,99757.19
2023-04-16T23:22:04.557Z,99756.80
2023-04-16T23:24:53.772Z,99758.00
2023-04-16T23:27:42.779Z,99759.25
2023-04-16T23:30:32.305Z,99756.52
2023-04-16T23:33:21.788Z,99756.95
2023-04-16T23:36:11.519Z,99752.41
2023-04-16T23:39:00.457Z,99753.97
2023-04-16T23:41:49.680Z,99751.25
2023-04-16T23:44:39.110Z,99752.59
2023-04-16T23:47:28.358Z,99749.48
2023-04-16T23:50:17.704Z,99749.17
2023-04-16T23:53:06.645Z,99749.78
2023-04-16T23:55:56.119Z,99744.38
2023-04-16T23:58:45.301Z,99745.38
